Woodburn, Iowa
Current Conditions -  °F | °C
As of 4:15 AM on Thursday 23 Oct 2014 (Local Time) from KI75 Reporting Station
Light Rain Light Rain  
Wind Chill: 53°   Ceiling: 8000
Heat Index: 53°   Visibility: 10mi
Dew Point: 49°   Wind: 9mph
Humidity: 88%   Direction: 160°SSE
Pressure: 30.07"   Gusts: NA
Location:  41.01°N, 93.6°W
Report Text: KI75 230915Z AUTO 16008KT 10SM -RA SCT050 BKN080 OVC095 12/10 A3007 RMK AO2 P0003 T01150096
Loading
Personal Weather Stations






























Interactive Weather Map
Tropical Storm Tracking
New forecast layout! Learn more

10-Day Weather Forecast

Advertisements
Track Severe Weather on mobile